sensor_id;sensor_type;location;lat;lon;timestamp;P1;durP1;ratioP1;P2;durP2;ratioP2
50319;SDS011;36226;53.464;9.852;2023-07-28T00:00:01;2.90;;;1.80;;
50319;SDS011;36226;53.464;9.852;2023-07-28T00:02:27;2.65;;;1.60;;
50319;SDS011;36226;53.464;9.852;2023-07-28T00:04:52;2.70;;;1.80;;
50319;SDS011;36226;53.464;9.852;2023-07-28T00:07:18;2.85;;;1.70;;
50319;SDS011;36226;53.464;9.852;2023-07-28T00:09:43;2.38;;;1.48;;
50319;SDS011;36226;53.464;9.852;2023-07-28T00:12:09;2.55;;;1.58;;
50319;SDS011;36226;53.464;9.852;2023-07-28T00:14:34;2.85;;;1.70;;
50319;SDS011;36226;53.464;9.852;2023-07-28T00:16:59;2.42;;;2.10;;
50319;SDS011;36226;53.464;9.852;2023-07-28T00:19:25;1.75;;;1.30;;
50319;SDS011;36226;53.464;9.852;2023-07-28T00:21:50;1.27;;;1.10;;
50319;SDS011;36226;53.464;9.852;2023-07-28T00:24:19;2.08;;;1.50;;
50319;SDS011;36226;53.464;9.852;2023-07-28T00:26:44;1.95;;;1.50;;
50319;SDS011;36226;53.464;9.852;2023-07-28T00:29:09;1.50;;;1.40;;
50319;SDS011;36226;53.464;9.852;2023-07-28T00:31:35;3.75;;;1.67;;
50319;SDS011;36226;53.464;9.852;2023-07-28T00:34:01;1.40;;;1.20;;
50319;SDS011;36226;53.464;9.852;2023-07-28T00:36:27;5.10;;;1.40;;
50319;SDS011;36226;53.464;9.852;2023-07-28T00:38:53;2.97;;;1.33;;
50319;SDS011;36226;53.464;9.852;2023-07-28T00:41:18;2.83;;;1.30;;
50319;SDS011;36226;53.464;9.852;2023-07-28T00:43:43;1.27;;;1.17;;
50319;SDS011;36226;53.464;9.852;2023-07-28T00:46:12;2.90;;;1.60;;
50319;SDS011;36226;53.464;9.852;2023-07-28T00:48:37;5.60;;;1.70;;
50319;SDS011;36226;53.464;9.852;2023-07-28T00:51:03;1.42;;;1.30;;
50319;SDS011;36226;53.464;9.852;2023-07-28T00:53:29;7.88;;;1.67;;
50319;SDS011;36226;53.464;9.852;2023-07-28T00:55:55;2.67;;;2.08;;
50319;SDS011;36226;53.464;9.852;2023-07-28T00:58:21;1.60;;;1.40;;
50319;SDS011;36226;53.464;9.852;2023-07-28T01:00:46;1.77;;;1.60;;
50319;SDS011;36226;53.464;9.852;2023-07-28T01:03:12;4.63;;;1.88;;
50319;SDS011;36226;53.464;9.852;2023-07-28T01:05:48;3.03;;;1.75;;
50319;SDS011;36226;53.464;9.852;2023-07-28T01:08:20;1.73;;;1.60;;
50319;SDS011;36226;53.464;9.852;2023-07-28T01:10:52;2.95;;;1.60;;
50319;SDS011;36226;53.464;9.852;2023-07-28T01:13:17;1.90;;;1.58;;
50319;SDS011;36226;53.464;9.852;2023-07-28T01:15:43;2.00;;;1.60;;
50319;SDS011;36226;53.464;9.852;2023-07-28T01:18:08;2.42;;;1.80;;
50319;SDS011;36226;53.464;9.852;2023-07-28T01:20:34;2.90;;;2.00;;
50319;SDS011;36226;53.464;9.852;2023-07-28T01:23:19;1.70;;;1.52;;
50319;SDS011;36226;53.464;9.852;2023-07-28T01:28:20;2.88;;;1.83;;
50319;SDS011;36226;53.464;9.852;2023-07-28T01:30:46;4.68;;;2.10;;
50319;SDS011;36226;53.464;9.852;2023-07-28T01:33:11;3.10;;;2.13;;
50319;SDS011;36226;53.464;9.852;2023-07-28T01:35:37;2.20;;;2.00;;
50319;SDS011;36226;53.464;9.852;2023-07-28T01:38:03;1.98;;;1.63;;
50319;SDS011;36226;53.464;9.852;2023-07-28T01:40:32;2.38;;;1.80;;
50319;SDS011;36226;53.464;9.852;2023-07-28T01:42:57;2.17;;;1.70;;
50319;SDS011;36226;53.464;9.852;2023-07-28T01:45:22;2.28;;;1.75;;
50319;SDS011;36226;53.464;9.852;2023-07-28T01:47:48;1.73;;;1.50;;
50319;SDS011;36226;53.464;9.852;2023-07-28T01:50:13;1.90;;;1.73;;
50319;SDS011;36226;53.464;9.852;2023-07-28T01:52:38;2.53;;;1.90;;
50319;SDS011;36226;53.464;9.852;2023-07-28T01:55:04;1.58;;;1.40;;
50319;SDS011;36226;53.464;9.852;2023-07-28T01:57:32;1.73;;;1.40;;
50319;SDS011;36226;53.464;9.852;2023-07-28T01:59:58;1.50;;;1.35;;
50319;SDS011;36226;53.464;9.852;2023-07-28T02:02:23;1.35;;;1.20;;
50319;SDS011;36226;53.464;9.852;2023-07-28T02:04:49;1.63;;;1.40;;
50319;SDS011;36226;53.464;9.852;2023-07-28T02:07:14;2.20;;;1.65;;
50319;SDS011;36226;53.464;9.852;2023-07-28T02:09:39;1.45;;;1.33;;
50319;SDS011;36226;53.464;9.852;2023-07-28T02:12:05;1.40;;;1.30;;
50319;SDS011;36226;53.464;9.852;2023-07-28T02:14:30;1.42;;;1.20;;
50319;SDS011;36226;53.464;9.852;2023-07-28T02:16:56;2.60;;;1.38;;
50319;SDS011;36226;53.464;9.852;2023-07-28T02:19:21;1.98;;;1.30;;
50319;SDS011;36226;53.464;9.852;2023-07-28T02:21:46;3.95;;;1.33;;
50319;SDS011;36226;53.464;9.852;2023-07-28T02:24:12;1.30;;;1.20;;
50319;SDS011;36226;53.464;9.852;2023-07-28T02:26:37;2.88;;;1.40;;
50319;SDS011;36226;53.464;9.852;2023-07-28T02:29:03;4.85;;;1.10;;
50319;SDS011;36226;53.464;9.852;2023-07-28T02:31:28;1.58;;;1.30;;
50319;SDS011;36226;53.464;9.852;2023-07-28T02:33:53;2.83;;;1.77;;
50319;SDS011;36226;53.464;9.852;2023-07-28T02:36:19;5.85;;;2.08;;
50319;SDS011;36226;53.464;9.852;2023-07-28T02:38:45;3.83;;;1.80;;
50319;SDS011;36226;53.464;9.852;2023-07-28T02:41:10;4.35;;;2.10;;
50319;SDS011;36226;53.464;9.852;2023-07-28T02:43:35;9.40;;;2.40;;
50319;SDS011;36226;53.464;9.852;2023-07-28T02:46:01;2.80;;;1.95;;
50319;SDS011;36226;53.464;9.852;2023-07-28T02:48:26;6.78;;;2.88;;
50319;SDS011;36226;53.464;9.852;2023-07-28T02:50:52;8.57;;;3.25;;
50319;SDS011;36226;53.464;9.852;2023-07-28T02:53:18;4.40;;;3.00;;
50319;SDS011;36226;53.464;9.852;2023-07-28T02:55:44;7.10;;;3.65;;
50319;SDS011;36226;53.464;9.852;2023-07-28T02:58:10;6.43;;;3.97;;
50319;SDS011;36226;53.464;9.852;2023-07-28T03:00:39;6.22;;;4.25;;
50319;SDS011;36226;53.464;9.852;2023-07-28T03:03:06;10.38;;;4.35;;
50319;SDS011;36226;53.464;9.852;2023-07-28T03:05:32;5.28;;;3.75;;
50319;SDS011;36226;53.464;9.852;2023-07-28T03:07:57;4.78;;;3.42;;
50319;SDS011;36226;53.464;9.852;2023-07-28T03:10:23;9.27;;;3.40;;
50319;SDS011;36226;53.464;9.852;2023-07-28T03:12:48;6.85;;;3.15;;
50319;SDS011;36226;53.464;9.852;2023-07-28T03:15:13;6.15;;;3.53;;
50319;SDS011;36226;53.464;9.852;2023-07-28T03:17:39;4.25;;;2.97;;
50319;SDS011;36226;53.464;9.852;2023-07-28T03:20:04;3.35;;;2.83;;
50319;SDS011;36226;53.464;9.852;2023-07-28T03:22:30;4.05;;;2.90;;
50319;SDS011;36226;53.464;9.852;2023-07-28T03:24:56;6.32;;;2.97;;
50319;SDS011;36226;53.464;9.852;2023-07-28T03:27:21;4.30;;;2.95;;
50319;SDS011;36226;53.464;9.852;2023-07-28T03:29:46;3.60;;;2.70;;
50319;SDS011;36226;53.464;9.852;2023-07-28T03:32:12;3.13;;;2.83;;
50319;SDS011;36226;53.464;9.852;2023-07-28T03:34:37;3.22;;;2.78;;
50319;SDS011;36226;53.464;9.852;2023-07-28T03:37:02;4.47;;;3.13;;
50319;SDS011;36226;53.464;9.852;2023-07-28T03:39:28;5.93;;;3.17;;
50319;SDS011;36226;53.464;9.852;2023-07-28T03:41:54;6.05;;;3.30;;
50319;SDS011;36226;53.464;9.852;2023-07-28T03:44:20;4.57;;;3.05;;
50319;SDS011;36226;53.464;9.852;2023-07-28T03:46:45;4.93;;;3.08;;
50319;SDS011;36226;53.464;9.852;2023-07-28T03:49:10;5.57;;;2.47;;
50319;SDS011;36226;53.464;9.852;2023-07-28T03:51:36;2.92;;;2.60;;
50319;SDS011;36226;53.464;9.852;2023-07-28T03:54:01;2.90;;;2.40;;
50319;SDS011;36226;53.464;9.852;2023-07-28T03:56:27;3.38;;;2.30;;
50319;SDS011;36226;53.464;9.852;2023-07-28T03:58:53;4.22;;;2.83;;
50319;SDS011;36226;53.464;9.852;2023-07-28T04:01:19;4.53;;;2.42;;
50319;SDS011;36226;53.464;9.852;2023-07-28T04:03:46;6.50;;;2.78;;
50319;SDS011;36226;53.464;9.852;2023-07-28T04:06:12;3.55;;;2.70;;
50319;SDS011;36226;53.464;9.852;2023-07-28T04:08:37;3.30;;;2.55;;
50319;SDS011;36226;53.464;9.852;2023-07-28T04:11:03;3.33;;;2.80;;
50319;SDS011;36226;53.464;9.852;2023-07-28T04:13:28;3.30;;;3.00;;
50319;SDS011;36226;53.464;9.852;2023-07-28T04:15:56;2.88;;;2.58;;
50319;SDS011;36226;53.464;9.852;2023-07-28T04:18:22;4.90;;;3.13;;
50319;SDS011;36226;53.464;9.852;2023-07-28T04:20:48;7.25;;;2.83;;
50319;SDS011;36226;53.464;9.852;2023-07-28T04:23:13;3.63;;;2.97;;
50319;SDS011;36226;53.464;9.852;2023-07-28T04:25:38;3.25;;;2.85;;
50319;SDS011;36226;53.464;9.852;2023-07-28T04:28:04;4.55;;;3.20;;
50319;SDS011;36226;53.464;9.852;2023-07-28T04:30:29;5.25;;;3.28;;
50319;SDS011;36226;53.464;9.852;2023-07-28T04:32:55;6.22;;;3.45;;
50319;SDS011;36226;53.464;9.852;2023-07-28T04:35:20;5.43;;;3.88;;
50319;SDS011;36226;53.464;9.852;2023-07-28T04:37:45;5.88;;;3.75;;
50319;SDS011;36226;53.464;9.852;2023-07-28T04:40:11;5.55;;;3.90;;
50319;SDS011;36226;53.464;9.852;2023-07-28T04:42:37;4.57;;;3.67;;
50319;SDS011;36226;53.464;9.852;2023-07-28T04:45:03;6.28;;;4.05;;
50319;SDS011;36226;53.464;9.852;2023-07-28T04:47:28;5.05;;;4.03;;
50319;SDS011;36226;53.464;9.852;2023-07-28T04:49:54;4.20;;;3.65;;
50319;SDS011;36226;53.464;9.852;2023-07-28T04:52:19;4.65;;;3.72;;
50319;SDS011;36226;53.464;9.852;2023-07-28T04:54:44;4.80;;;4.07;;
50319;SDS011;36226;53.464;9.852;2023-07-28T04:57:10;7.47;;;4.45;;
50319;SDS011;36226;53.464;9.852;2023-07-28T04:59:35;7.47;;;4.50;;
50319;SDS011;36226;53.464;9.852;2023-07-28T05:02:01;5.30;;;4.47;;
50319;SDS011;36226;53.464;9.852;2023-07-28T05:04:26;4.50;;;3.70;;
50319;SDS011;36226;53.464;9.852;2023-07-28T05:06:51;6.35;;;4.15;;
50319;SDS011;36226;53.464;9.852;2023-07-28T05:09:17;4.90;;;4.15;;
50319;SDS011;36226;53.464;9.852;2023-07-28T05:11:42;5.10;;;3.90;;
50319;SDS011;36226;53.464;9.852;2023-07-28T05:14:08;4.90;;;4.13;;
50319;SDS011;36226;53.464;9.852;2023-07-28T05:16:34;5.07;;;3.83;;
50319;SDS011;36226;53.464;9.852;2023-07-28T05:18:59;7.93;;;3.92;;
50319;SDS011;36226;53.464;9.852;2023-07-28T05:21:25;4.70;;;4.00;;
50319;SDS011;36226;53.464;9.852;2023-07-28T05:23:50;6.18;;;4.43;;
50319;SDS011;36226;53.464;9.852;2023-07-28T05:26:15;5.18;;;4.18;;
50319;SDS011;36226;53.464;9.852;2023-07-28T05:28:41;6.25;;;4.32;;
50319;SDS011;36226;53.464;9.852;2023-07-28T05:31:06;5.80;;;4.00;;
50319;SDS011;36226;53.464;9.852;2023-07-28T05:33:32;4.78;;;3.78;;
50319;SDS011;36226;53.464;9.852;2023-07-28T05:36:02;4.00;;;3.53;;
50319;SDS011;36226;53.464;9.852;2023-07-28T05:38:28;10.40;;;4.65;;
50319;SDS011;36226;53.464;9.852;2023-07-28T05:40:59;6.57;;;3.90;;
50319;SDS011;36226;53.464;9.852;2023-07-28T05:43:26;4.50;;;3.90;;
50319;SDS011;36226;53.464;9.852;2023-07-28T05:45:52;6.28;;;3.90;;
50319;SDS011;36226;53.464;9.852;2023-07-28T05:48:17;4.93;;;3.60;;
50319;SDS011;36226;53.464;9.852;2023-07-28T05:50:43;5.28;;;3.47;;
50319;SDS011;36226;53.464;9.852;2023-07-28T05:53:08;5.47;;;3.92;;
50319;SDS011;36226;53.464;9.852;2023-07-28T05:55:34;4.80;;;3.30;;
50319;SDS011;36226;53.464;9.852;2023-07-28T05:57:59;4.88;;;3.28;;
50319;SDS011;36226;53.464;9.852;2023-07-28T06:00:25;3.38;;;2.83;;
50319;SDS011;36226;53.464;9.852;2023-07-28T06:02:50;3.42;;;2.97;;
50319;SDS011;36226;53.464;9.852;2023-07-28T06:05:15;4.40;;;3.47;;
50319;SDS011;36226;53.464;9.852;2023-07-28T06:07:41;9.18;;;2.92;;
50319;SDS011;36226;53.464;9.852;2023-07-28T06:10:07;6.10;;;3.03;;
50319;SDS011;36226;53.464;9.852;2023-07-28T06:12:32;6.65;;;2.88;;
50319;SDS011;36226;53.464;9.852;2023-07-28T06:14:58;3.42;;;2.92;;
50319;SDS011;36226;53.464;9.852;2023-07-28T06:17:23;4.05;;;2.60;;
50319;SDS011;36226;53.464;9.852;2023-07-28T06:19:48;5.90;;;2.45;;
50319;SDS011;36226;53.464;9.852;2023-07-28T06:22:14;3.88;;;2.60;;
50319;SDS011;36226;53.464;9.852;2023-07-28T06:24:40;3.15;;;2.33;;
50319;SDS011;36226;53.464;9.852;2023-07-28T06:27:06;5.25;;;2.33;;
50319;SDS011;36226;53.464;9.852;2023-07-28T06:29:33;3.05;;;2.05;;
50319;SDS011;36226;53.464;9.852;2023-07-28T06:31:58;3.40;;;2.15;;
50319;SDS011;36226;53.464;9.852;2023-07-28T06:34:24;3.65;;;2.17;;
50319;SDS011;36226;53.464;9.852;2023-07-28T06:36:49;2.75;;;1.88;;
50319;SDS011;36226;53.464;9.852;2023-07-28T06:39:15;3.13;;;1.75;;
50319;SDS011;36226;53.464;9.852;2023-07-28T06:41:40;3.85;;;1.75;;
50319;SDS011;36226;53.464;9.852;2023-07-28T06:44:05;3.72;;;1.80;;
50319;SDS011;36226;53.464;9.852;2023-07-28T06:46:33;2.90;;;1.77;;
50319;SDS011;36226;53.464;9.852;2023-07-28T06:48:58;6.07;;;2.15;;
50319;SDS011;36226;53.464;9.852;2023-07-28T06:51:24;3.55;;;2.20;;
50319;SDS011;36226;53.464;9.852;2023-07-28T06:53:50;3.45;;;2.20;;
50319;SDS011;36226;53.464;9.852;2023-07-28T06:56:16;3.53;;;2.00;;
50319;SDS011;36226;53.464;9.852;2023-07-28T06:58:41;5.75;;;2.47;;
50319;SDS011;36226;53.464;9.852;2023-07-28T07:01:07;3.65;;;2.10;;
50319;SDS011;36226;53.464;9.852;2023-07-28T07:03:35;1.90;;;1.70;;
50319;SDS011;36226;53.464;9.852;2023-07-28T07:06:01;3.28;;;2.17;;
50319;SDS011;36226;53.464;9.852;2023-07-28T07:08:26;2.65;;;1.50;;
50319;SDS011;36226;53.464;9.852;2023-07-28T07:10:52;1.95;;;1.75;;
50319;SDS011;36226;53.464;9.852;2023-07-28T07:13:18;2.15;;;1.90;;
50319;SDS011;36226;53.464;9.852;2023-07-28T07:15:43;2.03;;;1.83;;
50319;SDS011;36226;53.464;9.852;2023-07-28T07:18:09;1.98;;;1.70;;
50319;SDS011;36226;53.464;9.852;2023-07-28T07:20:35;2.25;;;1.80;;
50319;SDS011;36226;53.464;9.852;2023-07-28T07:23:01;2.35;;;1.63;;
50319;SDS011;36226;53.464;9.852;2023-07-28T07:25:26;2.97;;;1.42;;
50319;SDS011;36226;53.464;9.852;2023-07-28T07:27:52;2.90;;;1.50;;
50319;SDS011;36226;53.464;9.852;2023-07-28T07:30:17;2.55;;;1.50;;
50319;SDS011;36226;53.464;9.852;2023-07-28T07:32:42;1.50;;;1.40;;
50319;SDS011;36226;53.464;9.852;2023-07-28T07:35:08;2.50;;;1.60;;
50319;SDS011;36226;53.464;9.852;2023-07-28T07:37:34;2.17;;;1.70;;
50319;SDS011;36226;53.464;9.852;2023-07-28T07:39:59;1.65;;;1.55;;
50319;SDS011;36226;53.464;9.852;2023-07-28T07:42:28;1.50;;;1.30;;
50319;SDS011;36226;53.464;9.852;2023-07-28T07:44:55;2.58;;;1.70;;
50319;SDS011;36226;53.464;9.852;2023-07-28T07:47:20;3.47;;;1.80;;
50319;SDS011;36226;53.464;9.852;2023-07-28T07:49:46;1.70;;;1.60;;
50319;SDS011;36226;53.464;9.852;2023-07-28T07:52:11;4.53;;;3.03;;
50319;SDS011;36226;53.464;9.852;2023-07-28T07:54:37;1.77;;;1.63;;
50319;SDS011;36226;53.464;9.852;2023-07-28T07:57:02;1.95;;;1.75;;
50319;SDS011;36226;53.464;9.852;2023-07-28T07:59:28;2.88;;;1.80;;
50319;SDS011;36226;53.464;9.852;2023-07-28T08:01:56;1.77;;;1.60;;
50319;SDS011;36226;53.464;9.852;2023-07-28T08:04:25;2.05;;;1.55;;
50319;SDS011;36226;53.464;9.852;2023-07-28T08:06:50;4.70;;;2.13;;
50319;SDS011;36226;53.464;9.852;2023-07-28T08:09:15;3.33;;;2.10;;
50319;SDS011;36226;53.464;9.852;2023-07-28T08:11:41;4.20;;;2.22;;
50319;SDS011;36226;53.464;9.852;2023-07-28T08:14:06;2.20;;;2.00;;
50319;SDS011;36226;53.464;9.852;2023-07-28T08:16:31;2.30;;;2.10;;
50319;SDS011;36226;53.464;9.852;2023-07-28T08:18:57;3.13;;;2.15;;
50319;SDS011;36226;53.464;9.852;2023-07-28T08:21:22;4.03;;;2.33;;
50319;SDS011;36226;53.464;9.852;2023-07-28T08:23:48;4.82;;;3.30;;
50319;SDS011;36226;53.464;9.852;2023-07-28T08:26:13;4.15;;;2.63;;
50319;SDS011;36226;53.464;9.852;2023-07-28T08:28:38;4.13;;;2.90;;
50319;SDS011;36226;53.464;9.852;2023-07-28T08:31:04;5.50;;;2.55;;
50319;SDS011;36226;53.464;9.852;2023-07-28T08:33:29;3.13;;;2.50;;
50319;SDS011;36226;53.464;9.852;2023-07-28T08:35:55;3.08;;;2.45;;
50319;SDS011;36226;53.464;9.852;2023-07-28T08:38:20;4.00;;;2.75;;
50319;SDS011;36226;53.464;9.852;2023-07-28T08:40:45;3.90;;;2.22;;
50319;SDS011;36226;53.464;9.852;2023-07-28T08:43:11;4.13;;;2.88;;
50319;SDS011;36226;53.464;9.852;2023-07-28T08:45:36;3.05;;;2.33;;
50319;SDS011;36226;53.464;9.852;2023-07-28T08:48:02;3.15;;;2.72;;
50319;SDS011;36226;53.464;9.852;2023-07-28T08:50:28;6.35;;;2.85;;
50319;SDS011;36226;53.464;9.852;2023-07-28T08:52:53;3.85;;;2.47;;
50319;SDS011;36226;53.464;9.852;2023-07-28T08:55:21;3.55;;;2.35;;
50319;SDS011;36226;53.464;9.852;2023-07-28T08:57:47;3.38;;;2.47;;
50319;SDS011;36226;53.464;9.852;2023-07-28T09:00:13;3.38;;;2.75;;
50319;SDS011;36226;53.464;9.852;2023-07-28T09:02:42;2.70;;;2.10;;
50319;SDS011;36226;53.464;9.852;2023-07-28T09:05:08;2.20;;;2.00;;
50319;SDS011;36226;53.464;9.852;2023-07-28T09:07:42;2.42;;;2.22;;
50319;SDS011;36226;53.464;9.852;2023-07-28T09:10:07;4.13;;;3.15;;
50319;SDS011;36226;53.464;9.852;2023-07-28T09:12:33;5.90;;;3.90;;
50319;SDS011;36226;53.464;9.852;2023-07-28T09:14:58;3.75;;;3.33;;
50319;SDS011;36226;53.464;9.852;2023-07-28T09:17:24;3.80;;;3.10;;
50319;SDS011;36226;53.464;9.852;2023-07-28T09:19:53;3.42;;;2.80;;
50319;SDS011;36226;53.464;9.852;2023-07-28T09:22:19;4.30;;;2.90;;
50319;SDS011;36226;53.464;9.852;2023-07-28T09:24:45;3.38;;;3.08;;
50319;SDS011;36226;53.464;9.852;2023-07-28T09:27:22;3.75;;;2.92;;
50319;SDS011;36226;53.464;9.852;2023-07-28T09:29:51;3.78;;;2.95;;
50319;SDS011;36226;53.464;9.852;2023-07-28T09:32:26;3.22;;;2.92;;
50319;SDS011;36226;53.464;9.852;2023-07-28T09:35:05;4.28;;;2.80;;
50319;SDS011;36226;53.464;9.852;2023-07-28T09:37:32;3.35;;;2.65;;
50319;SDS011;36226;53.464;9.852;2023-07-28T09:39:59;5.35;;;3.40;;
50319;SDS011;36226;53.464;9.852;2023-07-28T09:42:25;3.63;;;3.20;;
50319;SDS011;36226;53.464;9.852;2023-07-28T09:44:54;5.22;;;3.30;;
50319;SDS011;36226;53.464;9.852;2023-07-28T09:47:19;3.88;;;3.20;;
50319;SDS011;36226;53.464;9.852;2023-07-28T09:49:46;3.35;;;3.05;;
50319;SDS011;36226;53.464;9.852;2023-07-28T09:52:13;3.58;;;2.72;;
50319;SDS011;36226;53.464;9.852;2023-07-28T09:54:40;4.03;;;2.70;;
50319;SDS011;36226;53.464;9.852;2023-07-28T09:57:08;4.95;;;2.53;;
50319;SDS011;36226;53.464;9.852;2023-07-28T09:59:41;3.78;;;2.60;;
50319;SDS011;36226;53.464;9.852;2023-07-28T10:02:07;6.95;;;5.38;;
50319;SDS011;36226;53.464;9.852;2023-07-28T10:04:33;7.97;;;7.18;;
50319;SDS011;36226;53.464;9.852;2023-07-28T10:06:59;4.57;;;3.00;;
50319;SDS011;36226;53.464;9.852;2023-07-28T10:09:25;3.10;;;2.67;;
50319;SDS011;36226;53.464;9.852;2023-07-28T10:11:52;3.97;;;3.58;;
50319;SDS011;36226;53.464;9.852;2023-07-28T10:14:28;3.17;;;2.83;;
50319;SDS011;36226;53.464;9.852;2023-07-28T10:16:56;3.50;;;3.20;;
50319;SDS011;36226;53.464;9.852;2023-07-28T10:19:23;3.33;;;2.85;;
50319;SDS011;36226;53.464;9.852;2023-07-28T10:21:49;3.78;;;2.90;;
50319;SDS011;36226;53.464;9.852;2023-07-28T10:24:15;3.33;;;2.83;;
50319;SDS011;36226;53.464;9.852;2023-07-28T10:26:40;3.00;;;2.65;;
50319;SDS011;36226;53.464;9.852;2023-07-28T10:29:13;4.03;;;2.63;;
50319;SDS011;36226;53.464;9.852;2023-07-28T10:31:49;3.10;;;2.80;;
50319;SDS011;36226;53.464;9.852;2023-07-28T10:34:16;3.30;;;2.65;;
50319;SDS011;36226;53.464;9.852;2023-07-28T10:36:43;2.47;;;2.28;;
50319;SDS011;36226;53.464;9.852;2023-07-28T10:39:16;2.90;;;2.65;;
50319;SDS011;36226;53.464;9.852;2023-07-28T10:44:28;3.35;;;2.55;;
50319;SDS011;36226;53.464;9.852;2023-07-28T10:46:54;2.60;;;2.40;;
50319;SDS011;36226;53.464;9.852;2023-07-28T10:49:19;3.13;;;2.58;;
50319;SDS011;36226;53.464;9.852;2023-07-28T10:51:45;2.88;;;2.25;;
50319;SDS011;36226;53.464;9.852;2023-07-28T10:54:11;1.80;;;1.70;;
50319;SDS011;36226;53.464;9.852;2023-07-28T10:56:40;2.30;;;2.10;;
50319;SDS011;36226;53.464;9.852;2023-07-28T10:59:06;3.20;;;2.13;;
50319;SDS011;36226;53.464;9.852;2023-07-28T11:01:32;2.42;;;2.13;;
50319;SDS011;36226;53.464;9.852;2023-07-28T11:04:14;2.38;;;2.17;;
50319;SDS011;36226;53.464;9.852;2023-07-28T11:06:44;2.20;;;2.00;;
50319;SDS011;36226;53.464;9.852;2023-07-28T11:09:13;2.40;;;2.20;;
50319;SDS011;36226;53.464;9.852;2023-07-28T11:11:39;2.40;;;2.03;;
50319;SDS011;36226;53.464;9.852;2023-07-28T11:14:06;2.50;;;2.30;;
50319;SDS011;36226;53.464;9.852;2023-07-28T11:16:35;2.10;;;1.90;;
50319;SDS011;36226;53.464;9.852;2023-07-28T11:19:12;4.15;;;2.40;;
50319;SDS011;36226;53.464;9.852;2023-07-28T11:21:41;2.20;;;2.00;;
50319;SDS011;36226;53.464;9.852;2023-07-28T11:24:08;4.32;;;2.00;;
50319;SDS011;36226;53.464;9.852;2023-07-28T11:26:34;2.03;;;1.83;;
50319;SDS011;36226;53.464;9.852;2023-07-28T11:29:01;2.95;;;1.70;;
50319;SDS011;36226;53.464;9.852;2023-07-28T11:31:26;2.08;;;1.83;;
50319;SDS011;36226;53.464;9.852;2023-07-28T11:33:52;2.45;;;2.25;;
50319;SDS011;36226;53.464;9.852;2023-07-28T11:36:23;5.00;;;1.88;;
50319;SDS011;36226;53.464;9.852;2023-07-28T11:38:52;2.55;;;1.75;;
50319;SDS011;36226;53.464;9.852;2023-07-28T11:41:19;2.13;;;1.92;;
50319;SDS011;36226;53.464;9.852;2023-07-28T11:43:47;2.28;;;2.08;;
50319;SDS011;36226;53.464;9.852;2023-07-28T11:46:34;2.45;;;2.25;;
50319;SDS011;36226;53.464;9.852;2023-07-28T11:49:15;2.03;;;1.88;;
50319;SDS011;36226;53.464;9.852;2023-07-28T11:51:44;2.33;;;2.13;;
50319;SDS011;36226;53.464;9.852;2023-07-28T11:54:14;2.25;;;2.05;;
50319;SDS011;36226;53.464;9.852;2023-07-28T11:56:41;2.05;;;1.83;;
50319;SDS011;36226;53.464;9.852;2023-07-28T11:59:08;4.03;;;2.10;;
50319;SDS011;36226;53.464;9.852;2023-07-28T12:01:33;2.13;;;1.92;;
50319;SDS011;36226;53.464;9.852;2023-07-28T12:03:59;2.13;;;1.92;;
50319;SDS011;36226;53.464;9.852;2023-07-28T12:06:25;2.63;;;2.38;;
50319;SDS011;36226;53.464;9.852;2023-07-28T12:08:51;2.60;;;2.25;;
50319;SDS011;36226;53.464;9.852;2023-07-28T12:11:16;2.33;;;2.10;;
50319;SDS011;36226;53.464;9.852;2023-07-28T12:13:52;2.00;;;1.90;;
50319;SDS011;36226;53.464;9.852;2023-07-28T12:19:06;2.90;;;2.40;;
50319;SDS011;36226;53.464;9.852;2023-07-28T12:21:32;2.45;;;2.25;;
50319;SDS011;36226;53.464;9.852;2023-07-28T12:23:57;2.00;;;1.90;;
50319;SDS011;36226;53.464;9.852;2023-07-28T12:26:23;2.75;;;1.95;;
50319;SDS011;36226;53.464;9.852;2023-07-28T12:28:48;2.25;;;1.85;;
50319;SDS011;36226;53.464;9.852;2023-07-28T12:31:14;2.47;;;2.15;;
50319;SDS011;36226;53.464;9.852;2023-07-28T12:33:39;2.10;;;1.90;;
50319;SDS011;36226;53.464;9.852;2023-07-28T12:36:05;2.83;;;2.15;;
50319;SDS011;36226;53.464;9.852;2023-07-28T12:38:31;1.70;;;1.60;;
50319;SDS011;36226;53.464;9.852;2023-07-28T12:40:56;1.45;;;1.35;;
50319;SDS011;36226;53.464;9.852;2023-07-28T12:43:23;2.33;;;1.73;;
50319;SDS011;36226;53.464;9.852;2023-07-28T12:45:50;2.17;;;1.95;;
50319;SDS011;36226;53.464;9.852;2023-07-28T12:48:15;2.22;;;2.03;;
50319;SDS011;36226;53.464;9.852;2023-07-28T12:50:41;1.58;;;1.40;;
50319;SDS011;36226;53.464;9.852;2023-07-28T12:53:06;2.00;;;1.80;;
50319;SDS011;36226;53.464;9.852;2023-07-28T12:55:31;2.03;;;1.83;;
50319;SDS011;36226;53.464;9.852;2023-07-28T12:57:59;2.28;;;2.08;;
50319;SDS011;36226;53.464;9.852;2023-07-28T13:00:25;3.50;;;1.70;;
50319;SDS011;36226;53.464;9.852;2023-07-28T13:02:50;1.75;;;1.55;;
50319;SDS011;36226;53.464;9.852;2023-07-28T13:05:16;1.80;;;1.70;;
50319;SDS011;36226;53.464;9.852;2023-07-28T13:07:42;2.28;;;2.08;;
50319;SDS011;36226;53.464;9.852;2023-07-28T13:10:08;2.72;;;1.60;;
50319;SDS011;36226;53.464;9.852;2023-07-28T13:12:37;3.28;;;2.42;;
50319;SDS011;36226;53.464;9.852;2023-07-28T13:15:03;7.95;;;4.38;;
50319;SDS011;36226;53.464;9.852;2023-07-28T13:17:29;2.50;;;2.30;;
50319;SDS011;36226;53.464;9.852;2023-07-28T13:19:54;6.43;;;2.38;;
50319;SDS011;36226;53.464;9.852;2023-07-28T13:22:19;5.93;;;3.55;;
50319;SDS011;36226;53.464;9.852;2023-07-28T13:24:45;8.27;;;4.13;;
50319;SDS011;36226;53.464;9.852;2023-07-28T13:27:10;4.45;;;3.80;;
50319;SDS011;36226;53.464;9.852;2023-07-28T13:29:36;5.10;;;4.13;;
50319;SDS011;36226;53.464;9.852;2023-07-28T13:32:01;6.50;;;4.25;;
50319;SDS011;36226;53.464;9.852;2023-07-28T13:34:27;4.90;;;3.75;;
50319;SDS011;36226;53.464;9.852;2023-07-28T13:36:55;3.95;;;3.20;;
50319;SDS011;36226;53.464;9.852;2023-07-28T13:39:21;4.72;;;3.42;;
50319;SDS011;36226;53.464;9.852;2023-07-28T13:41:48;5.18;;;4.65;;
50319;SDS011;36226;53.464;9.852;2023-07-28T13:44:13;4.18;;;3.78;;
50319;SDS011;36226;53.464;9.852;2023-07-28T13:46:38;4.43;;;4.03;;
50319;SDS011;36226;53.464;9.852;2023-07-28T13:49:04;5.13;;;4.25;;
50319;SDS011;36226;53.464;9.852;2023-07-28T13:51:29;4.50;;;3.90;;
50319;SDS011;36226;53.464;9.852;2023-07-28T13:53:55;3.47;;;3.13;;
50319;SDS011;36226;53.464;9.852;2023-07-28T13:56:20;3.15;;;2.85;;
50319;SDS011;36226;53.464;9.852;2023-07-28T13:58:48;4.13;;;3.25;;
50319;SDS011;36226;53.464;9.852;2023-07-28T14:01:14;4.18;;;3.28;;
50319;SDS011;36226;53.464;9.852;2023-07-28T14:03:39;4.43;;;3.58;;
50319;SDS011;36226;53.464;9.852;2023-07-28T14:06:04;3.80;;;3.50;;
50319;SDS011;36226;53.464;9.852;2023-07-28T14:08:30;4.20;;;3.80;;
50319;SDS011;36226;53.464;9.852;2023-07-28T14:10:55;3.78;;;3.47;;
50319;SDS011;36226;53.464;9.852;2023-07-28T14:13:20;3.80;;;3.20;;
50319;SDS011;36226;53.464;9.852;2023-07-28T14:15:47;4.10;;;3.00;;
50319;SDS011;36226;53.464;9.852;2023-07-28T14:18:12;3.28;;;2.75;;
50319;SDS011;36226;53.464;9.852;2023-07-28T14:20:37;3.55;;;2.90;;
50319;SDS011;36226;53.464;9.852;2023-07-28T14:23:08;3.22;;;2.92;;
50319;SDS011;36226;53.464;9.852;2023-07-28T14:25:49;4.55;;;3.47;;
50319;SDS011;36226;53.464;9.852;2023-07-28T14:28:14;5.47;;;4.40;;
50319;SDS011;36226;53.464;9.852;2023-07-28T14:30:40;6.18;;;3.70;;
50319;SDS011;36226;53.464;9.852;2023-07-28T14:33:05;3.92;;;3.53;;
50319;SDS011;36226;53.464;9.852;2023-07-28T14:35:31;3.03;;;2.55;;
50319;SDS011;36226;53.464;9.852;2023-07-28T14:37:56;4.93;;;2.70;;
50319;SDS011;36226;53.464;9.852;2023-07-28T14:40:22;5.43;;;2.50;;
50319;SDS011;36226;53.464;9.852;2023-07-28T14:42:47;2.92;;;2.50;;
50319;SDS011;36226;53.464;9.852;2023-07-28T14:45:13;2.63;;;2.42;;
50319;SDS011;36226;53.464;9.852;2023-07-28T14:47:38;4.05;;;2.42;;
50319;SDS011;36226;53.464;9.852;2023-07-28T14:50:06;2.40;;;1.98;;